PWSweather.com
Personal Weather Stations
Station Observations
IONTARIO88
Lincoln, ON L0R

Lincoln, ON L0R

Lat: 43.1763563, Lon: -79.4719525

Elevation: 297

Station Type: Davis Vantage Pro 2 Plus

http://www.beamsvillewx.ca

High Low Average
Temperature 49.3°F9.6°C 34.5°F1.4°C 40.6°F4.8°C
Dew Point 32.2°F0.1°C 27.0°F-2.8°C 29.8°F-1.2°C
Winds 10.0 mph 16.1 kmh 2.0 mph 3.2 kmh 6.0 mph WSW9.7 kmh WSW
Wind Gusts 20.0 mph32.2 kmh 5.0 mph8.0 kmh 14.0 mph22.5 kmh
Humidity 83% 43% 67%
Pressure 30.27 in1025.1 mb 30.01 in1016.3 mb -
Precipitation 0.00 in0.0 mm - -
Hour Temp Dew Point Humidity Winds Wind Gusts Pressure Precip Precip Rate Daily Precip Total
12:00 AM 38.5°F3.6°C 31.6°F-0.2°C 76% 6.0 mph SW9.7 kmh SW 14.0 mph22.5 kmh 30.00 in1015.9 mb 0.00 in0.0 mm 0.00 in0.0 mm 0.21 in5.3 mm
12:15 AM 38.5°F3.6°C 31.6°F-0.2°C 76% 6.0 mph SW9.7 kmh SW 14.0 mph22.5 kmh 30.00 in1015.9 mb 0.00 in0.0 mm 0.00 in0.0 mm 0.21 in5.3 mm
12:30 AM 38.5°F3.6°C 31.2°F-0.4°C 75% 6.0 mph WSW9.7 kmh WSW 16.0 mph25.7 kmh 30.00 in1015.9 mb 0.00 in0.0 mm 0.00 in0.0 mm 0.21 in5.3 mm
12:45 AM 38.5°F3.6°C 31.2°F-0.4°C 75% 7.0 mph WSW11.3 kmh WSW 14.0 mph22.5 kmh 30.01 in1016.3 mb 0.00 in0.0 mm 0.00 in0.0 mm 0.21 in5.3 mm
01:00 AM 38.1°F3.4°C 31.2°F-0.4°C 76% 5.0 mph WSW8.0 kmh WSW 12.0 mph19.3 kmh 30.01 in1016.3 mb 0.00 in0.0 mm 0.00 in0.0 mm 0.00 in0.0 mm
01:15 AM 37.9°F3.3°C 31.0°F-0.6°C 76% 5.0 mph SW8.0 kmh SW 12.0 mph19.3 kmh 30.01 in1016.3 mb 0.00 in0.0 mm 0.00 in0.0 mm 0.00 in0.0 mm
01:30 AM 37.6°F3.1°C 31.0°F-0.6°C 77% 4.0 mph SW6.4 kmh SW 13.0 mph20.9 kmh 30.02 in1016.6 mb 0.00 in0.0 mm 0.00 in0.0 mm 0.00 in0.0 mm
01:45 AM 37.0°F2.8°C 30.8°F-0.7°C 78% 5.0 mph SW8.0 kmh SW 10.0 mph16.1 kmh 30.02 in1016.6 mb 0.00 in0.0 mm 0.00 in0.0 mm 0.00 in0.0 mm
02:00 AM 36.9°F2.7°C 31.0°F-0.6°C 79% 5.0 mph SW8.0 kmh SW 11.0 mph17.7 kmh 30.02 in1016.6 mb 0.00 in0.0 mm 0.00 in0.0 mm 0.00 in0.0 mm
02:15 AM 36.3°F2.4°C 30.7°F-0.7°C 80% 6.0 mph SW9.7 kmh SW 13.0 mph20.9 kmh 30.03 in1016.9 mb 0.00 in0.0 mm 0.00 in0.0 mm 0.00 in0.0 mm
02:30 AM 36.1°F2.3°C 30.9°F-0.6°C 81% 4.0 mph SW6.4 kmh SW 10.0 mph16.1 kmh 30.03 in1016.9 mb 0.00 in0.0 mm 0.00 in0.0 mm 0.00 in0.0 mm
02:45 AM 35.8°F2.1°C 30.8°F-0.7°C 82% 5.0 mph SW8.0 kmh SW 14.0 mph22.5 kmh 30.04 in1017.3 mb 0.00 in0.0 mm 0.00 in0.0 mm 0.00 in0.0 mm
03:00 AM 36.0°F2.2°C 31.0°F-0.6°C 82% 6.0 mph SW9.7 kmh SW 13.0 mph20.9 kmh 30.04 in1017.3 mb 0.00 in0.0 mm 0.00 in0.0 mm 0.00 in0.0 mm
03:15 AM 35.8°F2.1°C 30.8°F-0.7°C 82% 5.0 mph SW8.0 kmh SW 11.0 mph17.7 kmh 30.04 in1017.3 mb 0.00 in0.0 mm 0.00 in0.0 mm 0.00 in0.0 mm
03:30 AM 35.8°F2.1°C 30.8°F-0.7°C 82% 6.0 mph SW9.7 kmh SW 14.0 mph22.5 kmh 30.04 in1017.3 mb 0.00 in0.0 mm 0.00 in0.0 mm 0.00 in0.0 mm
03:45 AM 35.8°F2.1°C 30.8°F-0.7°C 82% 6.0 mph SW9.7 kmh SW 13.0 mph20.9 kmh 30.04 in1017.3 mb 0.00 in0.0 mm 0.00 in0.0 mm 0.00 in0.0 mm
04:00 AM 36.0°F2.2°C 31.0°F-0.6°C 82% 6.0 mph SW9.7 kmh SW 14.0 mph22.5 kmh 30.04 in1017.3 mb 0.00 in0.0 mm 0.00 in0.0 mm 0.00 in0.0 mm
04:15 AM 35.8°F2.1°C 30.8°F-0.7°C 82% 6.0 mph SW9.7 kmh SW 13.0 mph20.9 kmh 30.04 in1017.3 mb 0.00 in0.0 mm 0.00 in0.0 mm 0.00 in0.0 mm
04:30 AM 35.8°F2.1°C 30.8°F-0.7°C 82% 7.0 mph SW11.3 kmh SW 13.0 mph20.9 kmh 30.04 in1017.3 mb 0.00 in0.0 mm 0.00 in0.0 mm 0.00 in0.0 mm
04:45 AM 35.6°F2.0°C 30.9°F-0.6°C 83% 6.0 mph SW9.7 kmh SW 17.0 mph27.4 kmh 30.04 in1017.3 mb 0.00 in0.0 mm 0.00 in0.0 mm 0.00 in0.0 mm
05:00 AM 35.6°F2.0°C 30.9°F-0.6°C 83% 7.0 mph SW11.3 kmh SW 13.0 mph20.9 kmh 30.05 in1017.6 mb 0.00 in0.0 mm 0.00 in0.0 mm 0.00 in0.0 mm
05:15 AM 35.4°F1.9°C 30.8°F-0.7°C 83% 5.0 mph SW8.0 kmh SW 11.0 mph17.7 kmh 30.05 in1017.6 mb 0.00 in0.0 mm 0.00 in0.0 mm 0.00 in0.0 mm
05:30 AM 35.4°F1.9°C 30.5°F-0.8°C 82% 5.0 mph SW8.0 kmh SW 13.0 mph20.9 kmh 30.06 in1017.9 mb 0.00 in0.0 mm 0.00 in0.0 mm 0.00 in0.0 mm
05:45 AM 35.4°F1.9°C 30.5°F-0.8°C 82% 6.0 mph SW9.7 kmh SW 12.0 mph19.3 kmh 30.07 in1018.3 mb 0.00 in0.0 mm 0.00 in0.0 mm 0.00 in0.0 mm
06:00 AM 35.8°F2.1°C 30.8°F-0.7°C 82% 5.0 mph SW8.0 kmh SW 14.0 mph22.5 kmh 30.07 in1018.3 mb 0.00 in0.0 mm 0.00 in0.0 mm 0.00 in0.0 mm
06:15 AM 35.8°F2.1°C 30.8°F-0.7°C 82% 6.0 mph SW9.7 kmh SW 14.0 mph22.5 kmh 30.08 in1018.6 mb 0.00 in0.0 mm 0.00 in0.0 mm 0.00 in0.0 mm
06:30 AM 35.4°F1.9°C 30.5°F-0.8°C 82% 6.0 mph SW9.7 kmh SW 14.0 mph22.5 kmh 30.09 in1019.0 mb 0.00 in0.0 mm 0.00 in0.0 mm 0.00 in0.0 mm
06:45 AM 35.2°F1.8°C 30.6°F-0.8°C 83% 6.0 mph SW9.7 kmh SW 13.0 mph20.9 kmh 30.09 in1019.0 mb 0.00 in0.0 mm 0.00 in0.0 mm 0.00 in0.0 mm
07:00 AM 35.1°F1.7°C 30.4°F-0.9°C 83% 4.0 mph WSW6.4 kmh WSW 12.0 mph19.3 kmh 30.09 in1019.0 mb 0.00 in0.0 mm 0.00 in0.0 mm 0.00 in0.0 mm
07:15 AM 35.1°F1.7°C 30.1°F-1.1°C 82% 6.0 mph SW9.7 kmh SW 14.0 mph22.5 kmh 30.10 in1019.3 mb 0.00 in0.0 mm 0.00 in0.0 mm 0.00 in0.0 mm
07:30 AM 35.1°F1.7°C 30.1°F-1.1°C 82% 5.0 mph WSW8.0 kmh WSW 13.0 mph20.9 kmh 30.10 in1019.3 mb 0.00 in0.0 mm 0.00 in0.0 mm 0.00 in0.0 mm
07:45 AM 34.9°F1.6°C 29.9°F-1.2°C 82% 5.0 mph WSW8.0 kmh WSW 12.0 mph19.3 kmh 30.10 in1019.3 mb 0.00 in0.0 mm 0.00 in0.0 mm 0.00 in0.0 mm
08:00 AM 34.5°F1.4°C 29.9°F-1.2°C 83% 5.0 mph SW8.0 kmh SW 12.0 mph19.3 kmh 30.11 in1019.6 mb 0.00 in0.0 mm 0.00 in0.0 mm 0.00 in0.0 mm
08:15 AM 34.5°F1.4°C 29.9°F-1.2°C 83% 6.0 mph SW9.7 kmh SW 13.0 mph20.9 kmh 30.11 in1019.6 mb 0.00 in0.0 mm 0.00 in0.0 mm 0.00 in0.0 mm
08:30 AM 35.1°F1.7°C 30.1°F-1.1°C 82% 6.0 mph WSW9.7 kmh WSW 14.0 mph22.5 kmh 30.12 in1020.0 mb 0.00 in0.0 mm 0.00 in0.0 mm 0.00 in0.0 mm
08:45 AM 35.4°F1.9°C 30.2°F-1.0°C 81% 6.0 mph WSW9.7 kmh WSW 16.0 mph25.7 kmh 30.12 in1020.0 mb 0.00 in0.0 mm 0.00 in0.0 mm 0.00 in0.0 mm
09:00 AM 36.5°F2.5°C 30.6°F-0.8°C 79% 7.0 mph WSW11.3 kmh WSW 15.0 mph24.1 kmh 30.13 in1020.3 mb 0.00 in0.0 mm 0.00 in0.0 mm 0.00 in0.0 mm
09:15 AM 37.4°F3.0°C 30.5°F-0.8°C 76% 6.0 mph WSW9.7 kmh WSW 20.0 mph32.2 kmh 30.13 in1020.3 mb 0.00 in0.0 mm 0.00 in0.0 mm 0.00 in0.0 mm
09:30 AM 38.3°F3.5°C 30.7°F-0.7°C 74% 6.0 mph WSW9.7 kmh WSW 13.0 mph20.9 kmh 30.14 in1020.7 mb 0.00 in0.0 mm 0.00 in0.0 mm 0.00 in0.0 mm
09:45 AM 39.0°F3.9°C 31.1°F-0.5°C 73% 7.0 mph WSW11.3 kmh WSW 17.0 mph27.4 kmh 30.15 in1021.0 mb 0.00 in0.0 mm 0.00 in0.0 mm 0.00 in0.0 mm
10:00 AM 39.7°F4.3°C 31.4°F-0.3°C 72% 7.0 mph WSW11.3 kmh WSW 16.0 mph25.7 kmh 30.16 in1021.3 mb 0.00 in0.0 mm 0.00 in0.0 mm 0.00 in0.0 mm
10:15 AM 40.1°F4.5°C 31.1°F-0.5°C 70% 8.0 mph WSW12.9 kmh WSW 19.0 mph30.6 kmh 30.16 in1021.3 mb 0.00 in0.0 mm 0.00 in0.0 mm 0.00 in0.0 mm
10:30 AM 40.8°F4.9°C 31.4°F-0.3°C 69% 8.0 mph WSW12.9 kmh WSW 16.0 mph25.7 kmh 30.17 in1021.7 mb 0.00 in0.0 mm 0.00 in0.0 mm 0.00 in0.0 mm
10:45 AM 41.7°F5.4°C 31.6°F-0.2°C 67% 7.0 mph W11.3 kmh W 16.0 mph25.7 kmh 30.18 in1022.0 mb 0.00 in0.0 mm 0.00 in0.0 mm 0.00 in0.0 mm
11:00 AM 43.2°F6.2°C 32.2°F0.1°C 65% 6.0 mph W9.7 kmh W 16.0 mph25.7 kmh 30.18 in1022.0 mb 0.00 in0.0 mm 0.00 in0.0 mm 0.00 in0.0 mm
11:15 AM 43.2°F6.2°C 31.0°F-0.6°C 62% 8.0 mph W12.9 kmh W 17.0 mph27.4 kmh 30.18 in1022.0 mb 0.00 in0.0 mm 0.00 in0.0 mm 0.00 in0.0 mm
11:30 AM 43.2°F6.2°C 30.6°F-0.8°C 61% 9.0 mph W14.5 kmh W 18.0 mph29.0 kmh 30.18 in1022.0 mb 0.00 in0.0 mm 0.00 in0.0 mm 0.00 in0.0 mm
11:45 AM 44.2°F6.8°C 31.6°F-0.2°C 61% 8.0 mph W12.9 kmh W 15.0 mph24.1 kmh 30.19 in1022.4 mb 0.00 in0.0 mm 0.00 in0.0 mm 0.00 in0.0 mm
12:00 PM 44.4°F6.9°C 30.6°F-0.8°C 58% 9.0 mph W14.5 kmh W 17.0 mph27.4 kmh 30.20 in1022.7 mb 0.00 in0.0 mm 0.00 in0.0 mm 0.00 in0.0 mm
12:15 PM 45.1°F7.3°C 30.8°F-0.7°C 57% 8.0 mph WNW12.9 kmh WNW 16.0 mph25.7 kmh 30.20 in1022.7 mb 0.00 in0.0 mm 0.00 in0.0 mm 0.00 in0.0 mm
12:30 PM 45.7°F7.6°C 31.3°F-0.4°C 57% 9.0 mph W14.5 kmh W 15.0 mph24.1 kmh 30.20 in1022.7 mb 0.00 in0.0 mm 0.00 in0.0 mm 0.00 in0.0 mm
12:45 PM 46.0°F7.8°C 30.3°F-0.9°C 54% 7.0 mph W11.3 kmh W 16.0 mph25.7 kmh 30.20 in1022.7 mb 0.00 in0.0 mm 0.00 in0.0 mm 0.00 in0.0 mm
01:00 PM 46.8°F8.2°C 30.5°F-0.8°C 53% 6.0 mph W9.7 kmh W 12.0 mph19.3 kmh 30.20 in1022.7 mb 0.00 in0.0 mm 0.00 in0.0 mm 0.00 in0.0 mm
01:15 PM 46.9°F8.3°C 30.2°F-1.0°C 52% 8.0 mph W12.9 kmh W 15.0 mph24.1 kmh 30.20 in1022.7 mb 0.00 in0.0 mm 0.00 in0.0 mm 0.00 in0.0 mm
01:30 PM 47.3°F8.5°C 29.6°F-1.3°C 50% 8.0 mph W12.9 kmh W 17.0 mph27.4 kmh 30.20 in1022.7 mb 0.00 in0.0 mm 0.00 in0.0 mm 0.00 in0.0 mm
01:45 PM 46.9°F8.3°C 29.7°F-1.3°C 51% 10.0 mph WSW16.1 kmh WSW 17.0 mph27.4 kmh 30.19 in1022.4 mb 0.00 in0.0 mm 0.00 in0.0 mm 0.00 in0.0 mm
02:00 PM 46.9°F8.3°C 29.2°F-1.6°C 50% 9.0 mph WSW14.5 kmh WSW 17.0 mph27.4 kmh 30.19 in1022.4 mb 0.00 in0.0 mm 0.00 in0.0 mm 0.00 in0.0 mm
02:15 PM 47.8°F8.8°C 29.1°F-1.6°C 48% 9.0 mph W14.5 kmh W 17.0 mph27.4 kmh 30.19 in1022.4 mb 0.00 in0.0 mm 0.00 in0.0 mm 0.00 in0.0 mm
02:30 PM 47.5°F8.6°C 28.7°F-1.8°C 48% 10.0 mph WSW16.1 kmh WSW 18.0 mph29.0 kmh 30.19 in1022.4 mb 0.00 in0.0 mm 0.00 in0.0 mm 0.00 in0.0 mm
02:45 PM 47.8°F8.8°C 28.6°F-1.9°C 47% 10.0 mph WSW16.1 kmh WSW 19.0 mph30.6 kmh 30.18 in1022.0 mb 0.00 in0.0 mm 0.00 in0.0 mm 0.00 in0.0 mm
03:00 PM 48.4°F9.1°C 29.1°F-1.6°C 47% 10.0 mph W16.1 kmh W 18.0 mph29.0 kmh 30.19 in1022.4 mb 0.00 in0.0 mm 0.00 in0.0 mm 0.00 in0.0 mm
03:15 PM 48.7°F9.3°C 28.3°F-2.1°C 45% 9.0 mph W14.5 kmh W 20.0 mph32.2 kmh 30.19 in1022.4 mb 0.00 in0.0 mm 0.00 in0.0 mm 0.00 in0.0 mm
03:30 PM 49.1°F9.5°C 28.1°F-2.2°C 44% 10.0 mph W16.1 kmh W 19.0 mph30.6 kmh 30.18 in1022.0 mb 0.00 in0.0 mm 0.00 in0.0 mm 0.00 in0.0 mm
03:45 PM 48.9°F9.4°C 29.6°F-1.3°C 47% 9.0 mph W14.5 kmh W 18.0 mph29.0 kmh 30.19 in1022.4 mb 0.00 in0.0 mm 0.00 in0.0 mm 0.00 in0.0 mm
04:00 PM 49.3°F9.6°C 28.8°F-1.8°C 45% 9.0 mph W14.5 kmh W 19.0 mph30.6 kmh 30.19 in1022.4 mb 0.00 in0.0 mm 0.00 in0.0 mm 0.00 in0.0 mm
04:15 PM 49.1°F9.5°C 29.2°F-1.6°C 46% 9.0 mph W14.5 kmh W 18.0 mph29.0 kmh 30.20 in1022.7 mb 0.00 in0.0 mm 0.00 in0.0 mm 0.00 in0.0 mm
04:30 PM 48.4°F9.1°C 28.0°F-2.2°C 45% 9.0 mph W14.5 kmh W 17.0 mph27.4 kmh 30.20 in1022.7 mb 0.00 in0.0 mm 0.00 in0.0 mm 0.00 in0.0 mm
04:45 PM 48.4°F9.1°C 27.4°F-2.6°C 44% 9.0 mph W14.5 kmh W 16.0 mph25.7 kmh 30.20 in1022.7 mb 0.00 in0.0 mm 0.00 in0.0 mm 0.00 in0.0 mm
05:00 PM 48.7°F9.3°C 27.8°F-2.3°C 44% 9.0 mph W14.5 kmh W 17.0 mph27.4 kmh 30.20 in1022.7 mb 0.00 in0.0 mm 0.00 in0.0 mm 0.00 in0.0 mm
05:15 PM 48.7°F9.3°C 27.2°F-2.7°C 43% 9.0 mph WNW14.5 kmh WNW 16.0 mph25.7 kmh 30.20 in1022.7 mb 0.00 in0.0 mm 0.00 in0.0 mm 0.00 in0.0 mm
05:30 PM 48.4°F9.1°C 27.4°F-2.6°C 44% 10.0 mph WNW16.1 kmh WNW 18.0 mph29.0 kmh 30.20 in1022.7 mb 0.00 in0.0 mm 0.00 in0.0 mm 0.00 in0.0 mm
05:45 PM 48.0°F8.9°C 27.7°F-2.4°C 45% 10.0 mph W16.1 kmh W 18.0 mph29.0 kmh 30.21 in1023.0 mb 0.00 in0.0 mm 0.00 in0.0 mm 0.00 in0.0 mm
06:00 PM 47.8°F8.8°C 27.5°F-2.5°C 45% 10.0 mph WNW16.1 kmh WNW 15.0 mph24.1 kmh 30.21 in1023.0 mb 0.00 in0.0 mm 0.00 in0.0 mm 0.00 in0.0 mm
06:15 PM 47.5°F8.6°C 27.7°F-2.4°C 46% 6.0 mph W9.7 kmh W 13.0 mph20.9 kmh 30.21 in1023.0 mb 0.00 in0.0 mm 0.00 in0.0 mm 0.00 in0.0 mm
06:30 PM 46.8°F8.2°C 27.0°F-2.8°C 46% 7.0 mph W11.3 kmh W 12.0 mph19.3 kmh 30.22 in1023.4 mb 0.00 in0.0 mm 0.00 in0.0 mm 0.00 in0.0 mm
06:45 PM 45.9°F7.7°C 27.3°F-2.6°C 48% 6.0 mph W9.7 kmh W 12.0 mph19.3 kmh 30.22 in1023.4 mb 0.00 in0.0 mm 0.00 in0.0 mm 0.00 in0.0 mm
07:00 PM 44.6°F7.0°C 27.1°F-2.7°C 50% 4.0 mph W6.4 kmh W 8.0 mph12.9 kmh 30.23 in1023.7 mb 0.00 in0.0 mm 0.00 in0.0 mm 0.00 in0.0 mm
07:15 PM 43.9°F6.6°C 28.7°F-1.8°C 55% 2.0 mph WSW3.2 kmh WSW 5.0 mph8.0 kmh 30.23 in1023.7 mb 0.00 in0.0 mm 0.00 in0.0 mm 0.00 in0.0 mm
07:30 PM 42.4°F5.8°C 31.5°F-0.3°C 65% 4.0 mph SW6.4 kmh SW 9.0 mph14.5 kmh 30.23 in1023.7 mb 0.00 in0.0 mm 0.00 in0.0 mm 0.00 in0.0 mm
07:45 PM 41.7°F5.4°C 31.6°F-0.2°C 67% 3.0 mph SW4.8 kmh SW 11.0 mph17.7 kmh 30.24 in1024.0 mb 0.00 in0.0 mm 0.00 in0.0 mm 0.00 in0.0 mm
08:00 PM 41.2°F5.1°C 31.4°F-0.3°C 68% 3.0 mph SW4.8 kmh SW 11.0 mph17.7 kmh 30.24 in1024.0 mb 0.00 in0.0 mm 0.00 in0.0 mm 0.00 in0.0 mm
08:15 PM 40.5°F4.7°C 31.1°F-0.5°C 69% 4.0 mph SW6.4 kmh SW 9.0 mph14.5 kmh 30.24 in1024.0 mb 0.00 in0.0 mm 0.00 in0.0 mm 0.00 in0.0 mm
08:30 PM 39.9°F4.4°C 30.6°F-0.8°C 69% 4.0 mph SW6.4 kmh SW 12.0 mph19.3 kmh 30.25 in1024.4 mb 0.00 in0.0 mm 0.00 in0.0 mm 0.00 in0.0 mm
08:45 PM 39.6°F4.2°C 30.2°F-1.0°C 69% 3.0 mph SW4.8 kmh SW 10.0 mph16.1 kmh 30.25 in1024.4 mb 0.00 in0.0 mm 0.00 in0.0 mm 0.00 in0.0 mm
09:00 PM 39.2°F4.0°C 29.9°F-1.2°C 69% 3.0 mph SW4.8 kmh SW 10.0 mph16.1 kmh 30.25 in1024.4 mb 0.00 in0.0 mm 0.00 in0.0 mm 0.00 in0.0 mm
09:15 PM 38.8°F3.8°C 29.9°F-1.2°C 70% 4.0 mph SW6.4 kmh SW 12.0 mph19.3 kmh 30.26 in1024.7 mb 0.00 in0.0 mm 0.00 in0.0 mm 0.00 in0.0 mm
09:30 PM 38.5°F3.6°C 29.2°F-1.6°C 69% 3.0 mph SW4.8 kmh SW 9.0 mph14.5 kmh 30.26 in1024.7 mb 0.00 in0.0 mm 0.00 in0.0 mm 0.00 in0.0 mm
09:45 PM 38.1°F3.4°C 28.8°F-1.8°C 69% 3.0 mph SW4.8 kmh SW 9.0 mph14.5 kmh 30.27 in1025.1 mb 0.00 in0.0 mm 0.00 in0.0 mm 0.00 in0.0 mm
10:00 PM 37.9°F3.3°C 28.3°F-2.1°C 68% 3.0 mph SW4.8 kmh SW 10.0 mph16.1 kmh 30.27 in1025.1 mb 0.00 in0.0 mm 0.00 in0.0 mm 0.00 in0.0 mm
10:15 PM 37.6°F3.1°C 28.0°F-2.2°C 68% 4.0 mph SW6.4 kmh SW 9.0 mph14.5 kmh 30.27 in1025.1 mb 0.00 in0.0 mm 0.00 in0.0 mm 0.00 in0.0 mm
10:30 PM 37.4°F3.0°C 28.2°F-2.1°C 69% 4.0 mph SW6.4 kmh SW 9.0 mph14.5 kmh 30.27 in1025.1 mb 0.00 in0.0 mm 0.00 in0.0 mm 0.00 in0.0 mm
10:45 PM 37.2°F2.9°C 28.0°F-2.2°C 69% 4.0 mph SW6.4 kmh SW 11.0 mph17.7 kmh 30.27 in1025.1 mb 0.00 in0.0 mm 0.00 in0.0 mm 0.00 in0.0 mm
11:00 PM 37.0°F2.8°C 27.8°F-2.3°C 69% 4.0 mph SW6.4 kmh SW 11.0 mph17.7 kmh 30.27 in1025.1 mb 0.00 in0.0 mm 0.00 in0.0 mm 0.00 in0.0 mm
11:15 PM 37.0°F2.8°C 27.8°F-2.3°C 69% 4.0 mph SW6.4 kmh SW 10.0 mph16.1 kmh 30.27 in1025.1 mb 0.00 in0.0 mm 0.00 in0.0 mm 0.00 in0.0 mm
11:30 PM 36.9°F2.7°C 28.0°F-2.2°C 70% 4.0 mph SW6.4 kmh SW 12.0 mph19.3 kmh 30.27 in1025.1 mb 0.00 in0.0 mm 0.00 in0.0 mm 0.00 in0.0 mm
11:45 PM 37.0°F2.8°C 27.8°F-2.3°C 69% 5.0 mph SW8.0 kmh SW 9.0 mph14.5 kmh 30.27 in1025.1 mb 0.00 in0.0 mm 0.00 in0.0 mm 0.00 in0.0 mm